Time;durP1;ratioP1;P1;durP2;ratioP2;P2;SDS_P1;SDS_P2;PMS_P1;PMS_P2;Temp;Humidity;BMP_temperature;BMP_pressure;BME280_temperature;BME280_humidity;BME280_pressure;Samples;Min_cycle;Max_cycle;Signal;HPM_P1;HPM_P2
2022/04/29 00:00:34;;;;;;;0.40;0.40;;;9.00;66.00;;;;;;5076286;28;20036;-74
2022/04/29 00:03:00;;;;;;;0.40;0.35;;;9.00;66.10;;;;;;5112187;28;20504;-74
2022/04/29 00:05:27;;;;;;;1.40;0.60;;;9.00;66.10;;;;;;5080142;28;20054;-73
2022/04/29 00:07:52;;;;;;;1.27;0.60;;;8.90;66.10;;;;;;5080142;28;20078;-73
2022/04/29 00:10:19;;;;;;;0.32;0.32;;;8.90;66.20;;;;;;5097005;28;20481;-73
2022/04/29 00:12:48;;;;;;;0.45;0.45;;;8.90;66.20;;;;;;5097080;28;20036;-73
2022/04/29 00:15:16;;;;;;;1.27;0.50;;;8.90;66.40;;;;;;5095365;28;20056;-73
2022/04/29 00:17:42;;;;;;;0.40;0.40;;;8.80;66.30;;;;;;5080133;28;20036;-73
2022/04/29 00:20:10;;;;;;;0.43;0.40;;;8.80;66.40;;;;;;5096874;28;20035;-74
2022/04/29 00:22:36;;;;;;;0.30;0.30;;;8.80;66.50;;;;;;5096847;28;20043;-74
2022/04/29 00:25:03;;;;;;;0.63;0.47;;;8.80;66.50;;;;;;5063000;28;20118;-73
2022/04/29 00:27:29;;;;;;;0.40;0.30;;;8.80;66.60;;;;;;5094512;28;20086;-73
2022/04/29 00:29:55;;;;;;;0.65;0.43;;;8.80;66.70;;;;;;5096469;28;20044;-74
2022/04/29 00:32:22;;;;;;;0.40;0.40;;;8.70;66.70;;;;;;5096256;28;20474;-73
2022/04/29 00:34:49;;;;;;;0.70;0.50;;;8.70;66.70;;;;;;5096873;28;20031;-74
2022/04/29 00:37:15;;;;;;;1.67;0.40;;;8.70;66.80;;;;;;5096391;28;20106;-73
2022/04/29 00:39:41;;;;;;;0.55;0.38;;;8.60;66.90;;;;;;5096516;28;20051;-73
2022/04/29 00:42:16;;;;;;;0.40;0.40;;;8.60;66.90;;;;;;5096204;28;20039;-73
2022/04/29 00:44:43;;;;;;;0.43;0.43;;;8.60;67.00;;;;;;5096213;28;20136;-73
2022/04/29 00:47:13;;;;;;;0.38;0.38;;;8.60;67.00;;;;;;5079478;28;20078;-72
2022/04/29 00:49:40;;;;;;;0.38;0.38;;;8.60;67.10;;;;;;5096242;28;20078;-72
2022/04/29 00:52:08;;;;;;;0.60;0.60;;;8.60;67.10;;;;;;5114712;28;20040;-72
2022/04/29 00:54:37;;;;;;;0.60;0.60;;;8.50;67.20;;;;;;5114496;28;20114;-72
2022/04/29 00:57:09;;;;;;;0.63;0.40;;;8.50;67.20;;;;;;5096150;28;20093;-73
2022/04/29 00:59:54;;;;;;;0.65;0.50;;;8.50;67.30;;;;;;5079317;28;20043;-73
2022/04/29 01:02:21;;;;;;;0.85;0.43;;;8.40;67.40;;;;;;5114166;28;20067;-73
2022/04/29 01:05:03;;;;;;;1.15;0.60;;;8.40;67.30;;;;;;5062569;28;20035;-74
2022/04/29 01:07:29;;;;;;;1.25;0.50;;;8.40;67.50;;;;;;5114337;28;20114;-74
2022/04/29 01:09:58;;;;;;;0.50;0.50;;;8.40;67.50;;;;;;5114093;28;20126;-74
2022/04/29 01:12:26;;;;;;;1.65;0.60;;;8.30;67.50;;;;;;5096292;28;20460;-74
2022/04/29 01:14:55;;;;;;;0.80;0.60;;;8.30;67.50;;;;;;5113599;28;20066;-74
2022/04/29 01:17:21;;;;;;;0.60;0.40;;;8.30;68.20;;;;;;5113987;28;20036;-73
2022/04/29 01:19:47;;;;;;;1.27;0.60;;;8.30;67.60;;;;;;5095691;28;20040;-74
2022/04/29 01:22:13;;;;;;;0.98;0.70;;;8.30;67.70;;;;;;5095493;28;20058;-73
2022/04/29 01:24:38;;;;;;;0.90;0.60;;;8.20;67.60;;;;;;5062266;28;20438;-72
2022/04/29 01:27:12;;;;;;;0.75;0.52;;;8.30;67.70;;;;;;5093629;28;20040;-73
2022/04/29 01:29:44;;;;;;;0.85;0.60;;;8.20;67.80;;;;;;5095466;28;20043;-73
2022/04/29 01:32:10;;;;;;;1.55;0.70;;;8.20;67.80;;;;;;5094430;28;20043;-73
2022/04/29 01:34:36;;;;;;;1.35;0.70;;;8.10;67.70;;;;;;5095641;28;20044;-73
2022/04/29 01:37:03;;;;;;;0.90;0.60;;;8.20;67.90;;;;;;5113630;28;20039;-73
2022/04/29 01:39:29;;;;;;;1.52;0.60;;;8.20;67.90;;;;;;5113888;28;20528;-73
2022/04/29 01:41:55;;;;;;;1.25;0.80;;;8.20;67.90;;;;;;5096160;28;20090;-73
2022/04/29 01:44:20;;;;;;;1.52;0.75;;;8.10;67.90;;;;;;5113628;28;20040;-73
2022/04/29 01:46:46;;;;;;;1.00;0.70;;;8.00;67.90;;;;;;5095390;28;20424;-73
2022/04/29 01:49:12;;;;;;;0.50;0.50;;;8.10;68.00;;;;;;5078193;28;20044;-74
2022/04/29 01:51:38;;;;;;;0.85;0.65;;;8.00;68.00;;;;;;5114113;28;20119;-73
2022/04/29 01:54:09;;;;;;;0.77;0.70;;;8.10;68.10;;;;;;5113610;28;20042;-73
2022/04/29 01:56:35;;;;;;;2.25;0.70;;;8.00;68.20;;;;;;5113233;28;20129;-73
2022/04/29 01:59:02;;;;;;;1.20;0.77;;;8.00;68.20;;;;;;5113350;28;20480;-73
2022/04/29 02:01:28;;;;;;;0.85;0.60;;;7.90;68.20;;;;;;5095250;28;20047;-73
2022/04/29 02:03:55;;;;;;;0.88;0.77;;;8.00;69.00;;;;;;5113459;28;20095;-73
2022/04/29 02:06:21;;;;;;;0.60;0.52;;;7.90;68.40;;;;;;5113407;28;20374;-73
2022/04/29 02:08:48;;;;;;;1.10;0.77;;;8.10;68.50;;;;;;5113815;28;20035;-73
2022/04/29 02:11:14;;;;;;;1.65;0.85;;;7.90;68.40;;;;;;5113536;28;20039;-73
2022/04/29 02:13:40;;;;;;;1.00;0.90;;;7.90;68.50;;;;;;5113699;28;20040;-73
2022/04/29 02:16:08;;;;;;;1.13;0.75;;;7.90;68.60;;;;;;5094973;28;20092;-73
2022/04/29 02:18:34;;;;;;;1.42;0.60;;;7.90;68.60;;;;;;5113268;28;20401;-73
2022/04/29 02:21:00;;;;;;;0.88;0.70;;;7.90;68.60;;;;;;5113599;28;20035;-73
2022/04/29 02:23:26;;;;;;;0.70;0.70;;;8.00;68.70;;;;;;5113145;28;20040;-73
2022/04/29 02:25:52;;;;;;;0.80;0.80;;;7.80;68.70;;;;;;5112118;28;20396;-73
2022/04/29 02:28:18;;;;;;;1.20;0.77;;;7.90;68.80;;;;;;5095273;28;20040;-73
2022/04/29 02:30:44;;;;;;;1.08;0.60;;;7.80;68.70;;;;;;5094309;28;20039;-73
2022/04/29 02:33:10;;;;;;;0.82;0.60;;;7.80;68.80;;;;;;5113136;28;20374;-74
2022/04/29 02:35:35;;;;;;;0.85;0.65;;;7.70;68.80;;;;;;5094605;28;20066;-73
2022/04/29 02:38:01;;;;;;;0.47;0.47;;;7.80;68.80;;;;;;5113104;28;20043;-73
2022/04/29 02:40:27;;;;;;;1.20;0.82;;;7.80;68.80;;;;;;5113486;28;20465;-73
2022/04/29 02:42:53;;;;;;;1.42;0.60;;;7.80;68.80;;;;;;5113148;28;20097;-73
2022/04/29 02:45:18;;;;;;;1.23;0.65;;;7.70;68.70;;;;;;5113042;28;20428;-73
2022/04/29 02:47:44;;;;;;;1.42;0.82;;;7.80;69.40;;;;;;5077410;28;20039;-73
2022/04/29 02:50:10;;;;;;;2.28;1.00;;;7.80;68.90;;;;;;5077683;28;20043;-73
2022/04/29 02:52:35;;;;;;;0.65;0.60;;;7.80;69.00;;;;;;5112659;28;20031;-73
2022/04/29 02:55:01;;;;;;;1.08;0.82;;;7.80;69.10;;;;;;5094257;28;20032;-73
2022/04/29 02:57:27;;;;;;;1.23;0.60;;;7.70;69.00;;;;;;5094291;28;20043;-73
2022/04/29 02:59:54;;;;;;;1.48;0.80;;;7.70;69.10;;;;;;5094459;28;21133;-73
2022/04/29 03:02:20;;;;;;;1.88;0.80;;;7.70;69.20;;;;;;5094287;28;20043;-73
2022/04/29 03:04:45;;;;;;;0.82;0.70;;;7.70;69.20;;;;;;5112907;28;20050;-73
2022/04/29 03:07:11;;;;;;;2.47;0.70;;;7.70;69.30;;;;;;5112819;28;20436;-73
2022/04/29 03:09:37;;;;;;;1.00;0.80;;;7.70;69.30;;;;;;5112300;28;20397;-73
2022/04/29 03:12:03;;;;;;;1.33;0.70;;;7.70;69.40;;;;;;5112256;28;20130;-73
2022/04/29 03:14:29;;;;;;;0.98;0.80;;;7.70;69.50;;;;;;5093936;28;20032;-73
2022/04/29 03:16:54;;;;;;;1.52;0.70;;;7.70;69.50;;;;;;5112307;28;20459;-73
2022/04/29 03:19:20;;;;;;;1.38;0.88;;;7.70;69.60;;;;;;5112186;28;20086;-73
2022/04/29 03:21:47;;;;;;;0.75;0.60;;;7.60;69.50;;;;;;5112364;28;20035;-73
2022/04/29 03:24:12;;;;;;;0.90;0.77;;;7.60;69.60;;;;;;5094555;28;20044;-73
2022/04/29 03:26:40;;;;;;;0.60;0.60;;;7.60;69.60;;;;;;5093939;28;20062;-73
2022/04/29 03:29:06;;;;;;;1.38;0.80;;;7.60;69.70;;;;;;5112508;28;20044;-73
2022/04/29 03:31:32;;;;;;;0.73;0.60;;;7.60;69.70;;;;;;5112108;28;20043;-73
2022/04/29 03:33:58;;;;;;;1.60;1.10;;;7.60;69.80;;;;;;5093839;28;20039;-73
2022/04/29 03:36:23;;;;;;;0.98;0.82;;;7.60;69.80;;;;;;5112504;28;20442;-73
2022/04/29 03:38:49;;;;;;;0.93;0.70;;;7.50;69.90;;;;;;5115145;28;20126;-73
2022/04/29 03:41:15;;;;;;;0.80;0.60;;;7.50;69.90;;;;;;5116015;28;20036;-73
2022/04/29 03:43:50;;;;;;;1.08;0.80;;;7.50;70.60;;;;;;5116152;28;20039;-73
2022/04/29 03:46:16;;;;;;;1.27;0.73;;;7.50;70.00;;;;;;5115481;28;20497;-73
2022/04/29 03:51:25;;;;;;;2.15;0.90;;;7.50;70.10;;;;;;5115545;28;20082;-73
2022/04/29 03:53:50;;;;;;;1.52;0.60;;;7.50;70.10;;;;;;5097754;28;20110;-73
2022/04/29 03:56:17;;;;;;;1.25;0.73;;;7.50;70.20;;;;;;5115334;28;20039;-73
2022/04/29 03:58:43;;;;;;;1.23;0.70;;;7.50;70.20;;;;;;5115361;28;20042;-74
2022/04/29 04:01:11;;;;;;;1.65;0.70;;;7.40;70.20;;;;;;5097109;28;20063;-73
2022/04/29 04:03:37;;;;;;;1.45;0.82;;;7.50;70.30;;;;;;5115798;28;20047;-73
2022/04/29 04:08:46;;;;;;;1.20;0.80;;;7.40;70.40;;;;;;5115360;28;20047;-73
2022/04/29 04:11:12;;;;;;;1.13;0.82;;;7.40;70.40;;;;;;5115490;28;20397;-73
2022/04/29 04:13:37;;;;;;;0.63;0.60;;;7.40;70.40;;;;;;5115985;28;20123;-73
2022/04/29 04:16:04;;;;;;;0.82;0.70;;;7.40;70.40;;;;;;5097557;28;20035;-73
2022/04/29 04:18:30;;;;;;;0.80;0.80;;;7.50;70.60;;;;;;5115741;28;20044;-73
2022/04/29 04:20:55;;;;;;;0.73;0.55;;;7.40;70.50;;;;;;5097098;28;20074;-73
2022/04/29 04:23:21;;;;;;;1.55;0.70;;;7.50;70.50;;;;;;5097109;28;20071;-73
2022/04/29 04:25:47;;;;;;;1.00;0.77;;;7.50;70.50;;;;;;5080684;28;20052;-73
2022/04/29 04:28:13;;;;;;;1.10;0.80;;;7.50;70.50;;;;;;5115270;28;20050;-73
2022/04/29 04:30:40;;;;;;;1.13;0.50;;;7.50;70.50;;;;;;5115461;28;20040;-73
2022/04/29 04:33:06;;;;;;;1.23;0.82;;;7.50;70.50;;;;;;5096865;28;20047;-73
2022/04/29 04:35:31;;;;;;;2.17;0.68;;;7.50;70.60;;;;;;5115618;28;20039;-73
2022/04/29 04:37:57;;;;;;;0.85;0.70;;;7.50;70.60;;;;;;5115087;28;20389;-74
2022/04/29 04:40:23;;;;;;;1.00;0.60;;;7.50;70.60;;;;;;5115252;28;20140;-73
2022/04/29 04:42:48;;;;;;;0.60;0.60;;;7.40;70.60;;;;;;5114877;28;20139;-73
2022/04/29 04:45:14;;;;;;;0.77;0.60;;;7.60;70.70;;;;;;5096524;28;20040;-73
2022/04/29 04:47:40;;;;;;;0.70;0.70;;;7.50;70.60;;;;;;5114776;28;20481;-73
2022/04/29 04:50:07;;;;;;;1.15;0.73;;;7.50;70.70;;;;;;5114529;28;20109;-74
2022/04/29 04:52:33;;;;;;;1.42;0.90;;;7.50;70.60;;;;;;5096577;28;20043;-73
2022/04/29 04:55:04;;;;;;;1.17;0.70;;;7.60;70.70;;;;;;5097284;28;20054;-73
2022/04/29 04:57:30;;;;;;;2.20;0.85;;;7.60;70.80;;;;;;5096478;28;20039;-73
2022/04/29 04:59:56;;;;;;;1.90;0.80;;;7.50;70.70;;;;;;5096504;28;20054;-72
2022/04/29 05:02:21;;;;;;;1.10;0.68;;;7.60;70.80;;;;;;5096535;28;20044;-72
2022/04/29 05:04:47;;;;;;;1.50;0.80;;;7.60;70.80;;;;;;5114711;28;20046;-72
2022/04/29 05:07:13;;;;;;;1.90;0.68;;;7.60;70.80;;;;;;5114561;28;20047;-72
2022/04/29 05:09:39;;;;;;;1.50;0.80;;;7.60;70.80;;;;;;5096291;28;20118;-73
2022/04/29 05:12:05;;;;;;;1.25;0.80;;;7.60;70.80;;;;;;5114433;28;20473;-72
2022/04/29 05:14:30;;;;;;;0.52;0.47;;;7.60;70.90;;;;;;5114521;28;20050;-72
2022/04/29 05:16:56;;;;;;;1.95;0.77;;;7.60;70.90;;;;;;5096013;28;20039;-72
2022/04/29 05:19:22;;;;;;;0.88;0.65;;;7.60;71.00;;;;;;5114942;28;20501;-72
2022/04/29 05:21:48;;;;;;;0.70;0.60;;;7.60;71.00;;;;;;5114869;28;20044;-72
2022/04/29 05:24:14;;;;;;;1.25;0.82;;;7.70;71.00;;;;;;5095760;28;20044;-73
2022/04/29 05:26:39;;;;;;;0.88;0.70;;;7.60;71.00;;;;;;5114429;28;20043;-72
2022/04/29 05:29:05;;;;;;;1.15;0.63;;;7.70;71.10;;;;;;5114636;28;20542;-73
2022/04/29 05:31:31;;;;;;;1.13;0.60;;;7.70;71.10;;;;;;5114248;28;20035;-72
2022/04/29 05:33:57;;;;;;;1.33;0.60;;;7.60;71.00;;;;;;5114654;28;20031;-72
2022/04/29 05:36:23;;;;;;;0.93;0.68;;;7.60;71.00;;;;;;5095917;28;20027;-73
2022/04/29 05:44:12;;;;;;;0.82;0.52;;;7.70;71.10;;;;;;5097966;28;20050;-73
2022/04/29 05:46:37;;;;;;;1.15;0.70;;;7.70;71.10;;;;;;5095426;28;20040;-73
2022/04/29 05:49:04;;;;;;;1.52;0.68;;;7.80;71.20;;;;;;5095578;28;20451;-73
2022/04/29 05:51:30;;;;;;;0.75;0.70;;;7.80;71.10;;;;;;5095587;28;20047;-73
2022/04/29 05:53:56;;;;;;;1.27;1.00;;;7.80;71.10;;;;;;5095714;28;20081;-73
2022/04/29 05:56:22;;;;;;;1.15;0.80;;;7.90;71.20;;;;;;5096241;28;20066;-73
2022/04/29 05:58:47;;;;;;;1.00;0.68;;;7.90;71.20;;;;;;5113804;28;20047;-71
2022/04/29 06:01:13;;;;;;;1.90;0.82;;;7.90;71.20;;;;;;5112598;28;20051;-71
2022/04/29 06:03:39;;;;;;;0.68;0.65;;;7.90;71.10;;;;;;5113630;28;20039;-71
2022/04/29 06:06:05;;;;;;;0.63;0.60;;;8.00;71.20;;;;;;5114179;28;20060;-71
2022/04/29 06:08:30;;;;;;;0.50;0.50;;;7.90;71.10;;;;;;5113594;28;20036;-71
2022/04/29 06:10:56;;;;;;;0.65;0.65;;;8.10;71.20;;;;;;5095209;28;20036;-71
2022/04/29 06:13:22;;;;;;;1.13;0.75;;;8.00;71.10;;;;;;5113729;28;20071;-71
2022/04/29 06:15:47;;;;;;;0.98;0.60;;;8.10;71.00;;;;;;5078483;28;20069;-71
2022/04/29 06:18:13;;;;;;;1.45;0.73;;;8.20;71.00;;;;;;5095441;28;20028;-72
2022/04/29 06:20:39;;;;;;;1.13;0.70;;;8.10;70.90;;;;;;5095368;28;20046;-71
2022/04/29 06:23:05;;;;;;;1.02;0.70;;;8.20;71.00;;;;;;5095573;28;20051;-72
2022/04/29 06:25:31;;;;;;;1.65;0.73;;;8.20;70.90;;;;;;5095207;28;20039;-71
2022/04/29 06:27:56;;;;;;;1.08;0.70;;;8.20;71.00;;;;;;5113210;28;20043;-72
2022/04/29 06:30:22;;;;;;;2.55;1.00;;;8.30;71.00;;;;;;5113885;28;20036;-72
2022/04/29 06:32:48;;;;;;;1.27;0.80;;;8.30;70.90;;;;;;5113770;28;20070;-72
2022/04/29 06:35:17;;;;;;;1.45;0.80;;;8.30;70.90;;;;;;5094827;28;20039;-72
2022/04/29 06:37:43;;;;;;;0.57;0.50;;;8.30;70.90;;;;;;5113184;28;20044;-72
2022/04/29 06:40:09;;;;;;;1.70;1.08;;;8.40;70.90;;;;;;5077808;28;20051;-71
2022/04/29 06:42:45;;;;;;;0.88;0.52;;;8.40;70.80;;;;;;5113147;28;20032;-72
2022/04/29 06:45:11;;;;;;;1.48;0.88;;;8.40;70.90;;;;;;5093397;28;20054;-73
2022/04/29 06:47:36;;;;;;;1.00;0.70;;;8.40;70.90;;;;;;5113397;28;20044;-72
2022/04/29 06:50:04;;;;;;;0.98;0.70;;;8.60;70.90;;;;;;5094615;28;20068;-72
2022/04/29 06:52:29;;;;;;;0.70;0.60;;;8.60;70.80;;;;;;5069924;28;20435;-73
2022/04/29 06:54:55;;;;;;;1.20;0.70;;;8.70;70.70;;;;;;5070380;28;20124;-71
2022/04/29 06:57:21;;;;;;;1.23;0.90;;;8.70;70.70;;;;;;5051421;28;20041;-72
2022/04/29 06:59:49;;;;;;;1.08;0.65;;;8.80;70.70;;;;;;5070064;28;20056;-72
2022/04/29 07:02:16;;;;;;;0.80;0.68;;;8.80;70.70;;;;;;5069885;28;20440;-72
2022/04/29 07:04:42;;;;;;;0.98;0.70;;;8.80;70.60;;;;;;5053880;28;20101;-72
2022/04/29 07:07:11;;;;;;;1.92;0.80;;;8.90;70.60;;;;;;5070435;28;20086;-72
2022/04/29 07:09:39;;;;;;;1.20;0.70;;;8.90;70.50;;;;;;5070170;28;20048;-72
2022/04/29 07:12:07;;;;;;;0.57;0.57;;;9.00;70.50;;;;;;5069593;28;20044;-72
2022/04/29 07:14:33;;;;;;;2.03;0.82;;;9.10;70.80;;;;;;5070080;28;20123;-71
2022/04/29 07:16:59;;;;;;;3.10;0.93;;;9.10;70.30;;;;;;5053412;28;20036;-72
2022/04/29 07:19:25;;;;;;;1.35;0.73;;;9.20;70.30;;;;;;5070132;28;20044;-72
2022/04/29 07:21:51;;;;;;;0.82;0.75;;;9.30;70.40;;;;;;5069704;28;20389;-73
2022/04/29 07:24:18;;;;;;;1.17;0.80;;;9.30;70.30;;;;;;5106095;28;20047;-73
2022/04/29 07:26:44;;;;;;;0.70;0.68;;;9.40;70.30;;;;;;5077699;28;20036;-73
2022/04/29 07:29:09;;;;;;;0.60;0.60;;;9.40;70.30;;;;;;5112420;28;20104;-73
2022/04/29 07:31:35;;;;;;;1.02;0.80;;;9.50;70.20;;;;;;5112919;28;20489;-73
2022/04/29 07:34:02;;;;;;;2.58;1.00;;;9.50;70.10;;;;;;5112884;28;20059;-73
2022/04/29 07:41:51;;;;;;;0.50;0.50;;;9.80;69.90;;;;;;5112408;28;20047;-73
2022/04/29 07:44:17;;;;;;;0.75;0.60;;;9.80;69.80;;;;;;5112691;28;20065;-72
2022/04/29 07:46:45;;;;;;;0.60;0.60;;;9.90;69.60;;;;;;5112309;28;20039;-73
2022/04/29 07:49:12;;;;;;;0.90;0.70;;;10.00;69.60;;;;;;5112545;28;20043;-73
2022/04/29 07:51:38;;;;;;;1.08;0.50;;;10.10;69.60;;;;;;5112063;28;20136;-73
2022/04/29 07:54:05;;;;;;;0.80;0.60;;;10.10;69.60;;;;;;5093871;28;20043;-72
2022/04/29 07:56:31;;;;;;;2.20;0.60;;;10.20;69.60;;;;;;5112012;28;20036;-72
2022/04/29 07:58:58;;;;;;;1.95;0.57;;;10.40;69.40;;;;;;5112547;28;20480;-72
2022/04/29 08:01:26;;;;;;;1.13;0.77;;;10.60;69.20;;;;;;5093857;28;20052;-71
2022/04/29 08:03:53;;;;;;;1.20;0.60;;;10.70;68.80;;;;;;5076881;28;20051;-71
2022/04/29 08:06:19;;;;;;;0.65;0.60;;;10.80;68.60;;;;;;5111837;28;20039;-71
2022/04/29 08:08:45;;;;;;;0.68;0.47;;;11.00;68.40;;;;;;5111704;28;20051;-72
2022/04/29 08:11:11;;;;;;;0.50;0.47;;;11.10;68.30;;;;;;5093658;28;20067;-71
2022/04/29 08:13:38;;;;;;;0.57;0.50;;;11.30;68.10;;;;;;5111877;28;20405;-71
2022/04/29 08:16:05;;;;;;;0.68;0.60;;;11.40;67.90;;;;;;5111859;28;20043;-72
2022/04/29 08:18:31;;;;;;;0.45;0.45;;;11.60;67.80;;;;;;5111967;28;20042;-71
2022/04/29 08:20:57;;;;;;;0.98;0.70;;;11.60;67.60;;;;;;5112496;28;20386;-71
2022/04/29 08:23:24;;;;;;;0.98;0.60;;;11.60;67.80;;;;;;5112284;28;20046;-72
2022/04/29 08:25:49;;;;;;;0.75;0.60;;;11.60;67.80;;;;;;5114653;28;20040;-71
2022/04/29 08:28:15;;;;;;;0.60;0.60;;;11.70;67.90;;;;;;5096957;28;20054;-71
2022/04/29 08:30:41;;;;;;;0.98;0.40;;;11.80;67.90;;;;;;5115489;28;20111;-71
2022/04/29 08:33:12;;;;;;;1.67;0.70;;;11.80;67.70;;;;;;5115405;28;20041;-71
2022/04/29 08:35:39;;;;;;;0.95;0.43;;;11.90;67.70;;;;;;5097076;28;20431;-74
2022/04/29 08:38:09;;;;;;;1.63;0.60;;;12.00;67.70;;;;;;5097386;28;20031;-74
2022/04/29 08:40:43;;;;;;;1.10;0.73;;;12.00;67.50;;;;;;5097367;28;20046;-73
2022/04/29 08:43:12;;;;;;;0.70;0.50;;;12.10;67.60;;;;;;5113901;28;20040;-74
2022/04/29 08:45:38;;;;;;;0.93;0.60;;;12.20;67.60;;;;;;5115304;28;20036;-73
2022/04/29 08:48:04;;;;;;;1.95;0.73;;;12.10;67.50;;;;;;5096756;28;20482;-73
2022/04/29 08:50:31;;;;;;;0.70;0.60;;;12.10;67.50;;;;;;5115337;28;20040;-73
2022/04/29 08:52:58;;;;;;;0.60;0.60;;;12.30;67.50;;;;;;5114736;28;20130;-74
2022/04/29 09:00:49;;;;;;;0.95;0.60;;;12.90;66.80;;;;;;5114674;28;20035;-73
2022/04/29 09:03:17;;;;;;;0.50;0.50;;;13.10;66.40;;;;;;5114465;28;20096;-73
2022/04/29 09:05:44;;;;;;;0.85;0.60;;;13.10;66.20;;;;;;5115080;28;20035;-73
2022/04/29 09:08:15;;;;;;;1.05;0.57;;;13.20;66.20;;;;;;5096548;28;20040;-72
2022/04/29 09:10:50;;;;;;;;;;;13.30;66.30;;;;;;5115060;28;20043;-73
2022/04/29 09:13:24;;;;;;;0.70;0.47;;;13.40;66.20;;;;;;5114567;28;19957;-73
2022/04/29 09:15:58;;;;;;;0.60;0.57;;;13.60;66.00;;;;;;5114860;28;20058;-73
2022/04/29 09:18:37;;;;;;;0.68;0.65;;;13.80;65.60;;;;;;5114508;28;20040;-73
2022/04/29 09:21:19;;;;;;;0.70;0.60;;;13.90;65.40;;;;;;5114570;28;20122;-74
2022/04/29 09:23:47;;;;;;;1.10;0.80;;;14.00;65.20;;;;;;5114428;28;20044;-74
2022/04/29 09:26:26;;;;;;;0.88;0.60;;;13.90;65.10;;;;;;5095983;28;20515;-74
2022/04/29 09:28:54;;;;;;;1.98;0.60;;;13.90;65.40;;;;;;5095686;28;20051;-74
2022/04/29 09:31:21;;;;;;;1.45;0.90;;;13.90;65.60;;;;;;5114242;28;20501;-73
2022/04/29 09:33:55;;;;;;;0.70;0.70;;;13.90;65.70;;;;;;5114146;28;20547;-72
2022/04/29 09:36:24;;;;;;;2.00;0.75;;;14.00;65.50;;;;;;5114259;28;20039;-73
2022/04/29 09:41:31;;;;;;;0.88;0.80;;;14.10;65.50;;;;;;5097876;28;20048;-72
2022/04/29 09:43:57;;;;;;;0.95;0.75;;;14.20;65.50;;;;;;5114348;28;20046;-73
2022/04/29 09:46:23;;;;;;;1.77;0.80;;;14.20;65.40;;;;;;5113831;28;20043;-73
2022/04/29 09:49:06;;;;;;;1.38;0.80;;;14.20;65.50;;;;;;5114499;28;20047;-73
2022/04/29 09:51:49;;;;;;;1.58;0.90;;;14.20;65.60;;;;;;5113174;28;20040;-73
2022/04/29 09:54:18;;;;;;;1.30;0.73;;;14.30;65.40;;;;;;5113655;28;20056;-72
2022/04/29 09:57:02;;;;;;;0.93;0.77;;;14.40;65.40;;;;;;5095611;28;20036;-73
2022/04/29 09:59:34;;;;;;;1.35;0.85;;;14.40;65.30;;;;;;5112124;28;20393;-72
2022/04/29 10:02:01;;;;;;;1.00;0.70;;;14.50;65.30;;;;;;5113677;28;20123;-73
2022/04/29 10:04:30;;;;;;;0.88;0.73;;;14.50;65.30;;;;;;5113735;28;20039;-73
2022/04/29 10:06:57;;;;;;;2.55;0.90;;;14.60;65.20;;;;;;5113658;28;20075;-74
2022/04/29 10:09:29;;;;;;;1.20;0.80;;;14.60;65.10;;;;;;5113746;28;20377;-73
2022/04/29 10:11:57;;;;;;;0.75;0.75;;;14.60;65.10;;;;;;5113764;28;20092;-73
2022/04/29 10:14:26;;;;;;;2.08;1.00;;;14.70;65.10;;;;;;5113600;28;20040;-73
2022/04/29 10:22:29;;;;;;;1.48;0.77;;;14.70;65.10;;;;;;5113313;28;20047;-73
2022/04/29 10:24:55;;;;;;;0.73;0.70;;;14.70;65.10;;;;;;5113831;28;20054;-73
2022/04/29 10:27:21;;;;;;;0.85;0.77;;;14.80;65.20;;;;;;5095225;28;20047;-73
2022/04/29 10:29:47;;;;;;;0.88;0.80;;;14.80;65.20;;;;;;5095796;28;20054;-73
2022/04/29 10:32:13;;;;;;;1.65;1.08;;;14.80;65.10;;;;;;5095340;28;20027;-73
2022/04/29 10:34:39;;;;;;;0.98;0.80;;;14.90;65.20;;;;;;5113291;28;20042;-73
2022/04/29 10:37:11;;;;;;;1.00;0.80;;;14.90;65.10;;;;;;5113313;28;20043;-73
2022/04/29 10:39:38;;;;;;;1.60;0.85;;;14.90;65.00;;;;;;5113040;28;20051;-73
2022/04/29 10:42:08;;;;;;;2.13;0.90;;;15.00;65.00;;;;;;5095121;28;20081;-73
2022/04/29 10:44:34;;;;;;;0.88;0.70;;;15.00;64.80;;;;;;5111655;28;20040;-73
2022/04/29 10:47:28;;;;;;;0.95;0.75;;;15.00;64.80;;;;;;5112018;28;20035;-73
2022/04/29 10:50:26;;;;;;;1.20;0.80;;;15.00;64.80;;;;;;5094846;28;20032;-73
2022/04/29 10:53:00;;;;;;;0.85;0.70;;;15.10;64.60;;;;;;5112685;28;20480;-73
2022/04/29 10:55:26;;;;;;;0.82;0.77;;;15.00;64.60;;;;;;5113472;28;20036;-73
2022/04/29 10:57:52;;;;;;;1.52;0.70;;;15.00;64.80;;;;;;5113583;28;20096;-73
2022/04/29 11:00:22;;;;;;;0.98;0.80;;;14.90;64.80;;;;;;5078288;28;20465;-73
2022/04/29 11:02:47;;;;;;;0.98;0.75;;;15.00;65.00;;;;;;5112950;28;20051;-73
2022/04/29 11:05:36;;;;;;;1.67;1.05;;;14.90;64.80;;;;;;5113038;28;20051;-72
2022/04/29 11:08:10;;;;;;;0.70;0.70;;;14.90;64.60;;;;;;5113015;28;20040;-73
2022/04/29 11:11:03;;;;;;;1.10;0.60;;;14.90;64.80;;;;;;5111680;28;20055;-73
2022/04/29 11:13:30;;;;;;;1.88;0.80;;;15.00;64.70;;;;;;5111995;28;20036;-73
2022/04/29 11:16:15;;;;;;;1.10;0.63;;;15.00;64.60;;;;;;5112755;28;20048;-73
2022/04/29 11:18:43;;;;;;;1.33;0.68;;;15.00;64.50;;;;;;5093150;28;20093;-73
2022/04/29 11:26:41;;;;;;;1.17;0.75;;;15.00;64.30;;;;;;5112531;28;20040;-73
2022/04/29 11:29:10;;;;;;;0.70;0.70;;;15.00;64.30;;;;;;5112585;28;20048;-73
2022/04/29 11:31:37;;;;;;;1.10;0.80;;;15.00;65.00;;;;;;5113067;28;20150;-73
2022/04/29 11:34:07;;;;;;;1.70;0.75;;;15.00;64.30;;;;;;5094108;28;20398;-73
2022/04/29 11:36:33;;;;;;;3.20;1.20;;;15.00;64.30;;;;;;5093922;28;20042;-72
2022/04/29 11:38:59;;;;;;;0.70;0.65;;;14.90;64.20;;;;;;5112332;28;20040;-72
2022/04/29 11:41:27;;;;;;;1.33;0.80;;;15.00;64.90;;;;;;5094060;28;20492;-72
2022/04/29 11:43:54;;;;;;;0.60;0.60;;;14.90;64.20;;;;;;5112859;28;20062;-72
2022/04/29 11:46:21;;;;;;;1.65;0.80;;;14.90;64.30;;;;;;5112762;28;20035;-73
2022/04/29 11:48:57;;;;;;;1.35;0.90;;;15.00;64.20;;;;;;5112227;28;20063;-73
2022/04/29 11:51:24;;;;;;;1.05;0.85;;;15.00;64.10;;;;;;5095242;28;20040;-72
2022/04/29 11:53:54;;;;;;;1.55;0.90;;;15.00;64.10;;;;;;5093919;28;20036;-72
2022/04/29 11:56:20;;;;;;;1.75;1.00;;;14.80;64.10;;;;;;5112356;28;20146;-72
2022/04/29 11:58:46;;;;;;;1.60;0.75;;;14.90;64.10;;;;;;5114050;28;20489;-73
2022/04/29 12:01:15;;;;;;;1.52;0.90;;;15.00;64.10;;;;;;5116094;28;20074;-73
2022/04/29 12:03:47;;;;;;;1.60;0.82;;;15.00;64.60;;;;;;5116421;28;20051;-72
2022/04/29 12:06:13;;;;;;;0.98;0.70;;;14.90;63.80;;;;;;5114558;28;20046;-72
2022/04/29 12:08:39;;;;;;;0.88;0.70;;;15.00;63.90;;;;;;5115458;28;20035;-73
2022/04/29 12:11:05;;;;;;;1.70;1.20;;;15.00;63.80;;;;;;5116053;28;20173;-73
2022/04/29 12:13:31;;;;;;;0.75;0.75;;;15.00;63.70;;;;;;5115394;28;20086;-73
2022/04/29 12:15:57;;;;;;;0.60;0.60;;;15.00;63.60;;;;;;5115489;28;20028;-72
2022/04/29 12:18:41;;;;;;;1.42;1.00;;;14.90;63.70;;;;;;5115444;28;20040;-73
2022/04/29 12:21:09;;;;;;;1.35;0.90;;;14.90;63.60;;;;;;5115088;28;20040;-73
2022/04/29 12:23:35;;;;;;;1.60;0.90;;;14.90;63.70;;;;;;5115130;28;20047;-73
2022/04/29 12:26:02;;;;;;;1.05;0.80;;;15.00;63.70;;;;;;5115374;28;20036;-73
2022/04/29 12:28:30;;;;;;;2.08;1.20;;;15.00;63.60;;;;;;5115612;28;20489;-73
2022/04/29 12:36:57;;;;;;;1.25;0.90;;;15.20;62.90;;;;;;5114900;28;20534;-72
2022/04/29 12:39:33;;;;;;;0.98;0.80;;;15.20;62.80;;;;;;5114440;28;20062;-73
2022/04/29 12:42:11;;;;;;;0.60;0.60;;;15.20;62.70;;;;;;5098716;28;20048;-73
2022/04/29 12:47:38;;;;;;;1.55;1.00;;;15.40;62.50;;;;;;5113348;28;20378;-73
2022/04/29 12:50:18;;;;;;;1.85;0.80;;;15.40;62.50;;;;;;5114417;28;20138;-73
2022/04/29 12:52:54;;;;;;;0.60;0.60;;;15.40;62.50;;;;;;5114807;28;20074;-73
2022/04/29 12:55:21;;;;;;;1.73;0.70;;;15.40;62.70;;;;;;5114288;28;20040;-73
2022/04/29 12:57:47;;;;;;;1.27;0.80;;;15.40;62.30;;;;;;5096355;28;20028;-73
2022/04/29 13:00:25;;;;;;;0.95;0.80;;;15.50;62.40;;;;;;5115021;28;20043;-73
2022/04/29 13:03:01;;;;;;;1.20;1.00;;;15.40;62.10;;;;;;5078984;28;20481;-72
2022/04/29 13:05:28;;;;;;;1.55;0.82;;;15.60;61.80;;;;;;5114497;28;20562;-73
2022/04/29 13:07:54;;;;;;;0.57;0.57;;;15.80;61.60;;;;;;5114867;28;20035;-73
2022/04/29 13:10:20;;;;;;;1.05;0.90;;;15.80;61.30;;;;;;5114554;28;20050;-72
2022/04/29 13:12:46;;;;;;;0.60;0.60;;;15.90;61.20;;;;;;5112641;28;20036;-73
2022/04/29 13:15:12;;;;;;;1.00;0.90;;;15.90;61.10;;;;;;5114514;28;20385;-72
2022/04/29 13:17:38;;;;;;;2.10;1.00;;;16.00;60.80;;;;;;5096216;28;20043;-73
2022/04/29 13:20:08;;;;;;;1.15;0.77;;;15.90;60.80;;;;;;5114354;28;20058;-73
2022/04/29 13:22:34;;;;;;;0.87;0.80;;;15.90;61.00;;;;;;5114373;28;20046;-72
2022/04/29 13:25:00;;;;;;;0.80;0.80;;;15.80;61.00;;;;;;5114574;28;20122;-73
2022/04/29 13:27:28;;;;;;;1.40;1.00;;;15.80;61.20;;;;;;5114251;28;20046;-73
2022/04/29 13:29:55;;;;;;;1.42;0.90;;;15.80;61.10;;;;;;5095796;28;20130;-74
2022/04/29 13:32:21;;;;;;;1.35;0.90;;;15.70;61.90;;;;;;5114568;28;20565;-73
2022/04/29 13:34:50;;;;;;;1.05;0.80;;;15.60;61.40;;;;;;5097322;28;20035;-79
2022/04/29 13:37:17;;;;;;;1.48;1.00;;;15.60;61.50;;;;;;5116451;28;20063;-76
2022/04/29 13:39:43;;;;;;;0.90;0.70;;;15.60;61.50;;;;;;5098340;28;20066;-73